sensor_id;sensor_type;location;lat;lon;timestamp;pressure;altitude;pressure_sealevel;temperature
15680;BMP180;15488;48.114;11.532;2023-02-23T00:01:59;94980.00;;;16.30
15680;BMP180;15488;48.114;11.532;2023-02-23T00:04:33;94981.00;;;16.30
15680;BMP180;15488;48.114;11.532;2023-02-23T00:07:01;94980.00;;;16.50
15680;BMP180;15488;48.114;11.532;2023-02-23T00:09:29;94985.00;;;16.30
15680;BMP180;15488;48.114;11.532;2023-02-23T00:12:02;94982.00;;;16.30
15680;BMP180;15488;48.114;11.532;2023-02-23T00:14:33;94992.00;;;16.30
15680;BMP180;15488;48.114;11.532;2023-02-23T00:17:02;94987.00;;;16.30
15680;BMP180;15488;48.114;11.532;2023-02-23T00:19:31;94987.00;;;16.30
15680;BMP180;15488;48.114;11.532;2023-02-23T00:22:02;94987.00;;;16.20
15680;BMP180;15488;48.114;11.532;2023-02-23T00:24:31;94985.00;;;16.20
15680;BMP180;15488;48.114;11.532;2023-02-23T00:27:01;94987.00;;;16.20
15680;BMP180;15488;48.114;11.532;2023-02-23T00:29:31;94987.00;;;16.20
15680;BMP180;15488;48.114;11.532;2023-02-23T00:32:04;94986.00;;;16.20
15680;BMP180;15488;48.114;11.532;2023-02-23T00:34:33;94985.00;;;16.10
15680;BMP180;15488;48.114;11.532;2023-02-23T00:37:02;94983.00;;;16.10
15680;BMP180;15488;48.114;11.532;2023-02-23T00:39:29;94980.00;;;16.10
15680;BMP180;15488;48.114;11.532;2023-02-23T00:41:57;94990.00;;;16.00
15680;BMP180;15488;48.114;11.532;2023-02-23T00:44:28;94986.00;;;16.10
15680;BMP180;15488;48.114;11.532;2023-02-23T00:46:55;94980.00;;;16.10
15680;BMP180;15488;48.114;11.532;2023-02-23T00:49:23;94987.00;;;16.00
15680;BMP180;15488;48.114;11.532;2023-02-23T00:51:52;94987.00;;;16.00
15680;BMP180;15488;48.114;11.532;2023-02-23T00:54:20;94986.00;;;16.00
15680;BMP180;15488;48.114;11.532;2023-02-23T00:56:48;94979.00;;;16.10
15680;BMP180;15488;48.114;11.532;2023-02-23T00:59:16;94989.00;;;16.00
15680;BMP180;15488;48.114;11.532;2023-02-23T01:01:44;94992.00;;;16.00
15680;BMP180;15488;48.114;11.532;2023-02-23T01:04:12;94990.00;;;16.00
15680;BMP180;15488;48.114;11.532;2023-02-23T01:06:41;94987.00;;;16.10
15680;BMP180;15488;48.114;11.532;2023-02-23T01:09:13;94992.00;;;16.00
15680;BMP180;15488;48.114;11.532;2023-02-23T01:11:42;94987.00;;;16.00
15680;BMP180;15488;48.114;11.532;2023-02-23T01:14:11;94987.00;;;16.00
15680;BMP180;15488;48.114;11.532;2023-02-23T01:16:39;94985.00;;;16.00
15680;BMP180;15488;48.114;11.532;2023-02-23T01:19:08;94989.00;;;16.10
15680;BMP180;15488;48.114;11.532;2023-02-23T01:21:41;94989.00;;;16.00
15680;BMP180;15488;48.114;11.532;2023-02-23T01:24:11;94990.00;;;16.10
15680;BMP180;15488;48.114;11.532;2023-02-23T01:26:40;94990.00;;;16.00
15680;BMP180;15488;48.114;11.532;2023-02-23T01:29:10;94989.00;;;16.10
15680;BMP180;15488;48.114;11.532;2023-02-23T01:31:41;94987.00;;;16.10
15680;BMP180;15488;48.114;11.532;2023-02-23T01:34:10;94994.00;;;16.10
15680;BMP180;15488;48.114;11.532;2023-02-23T01:36:40;94992.00;;;16.20
15680;BMP180;15488;48.114;11.532;2023-02-23T01:39:11;94997.00;;;16.10
15680;BMP180;15488;48.114;11.532;2023-02-23T01:41:39;94992.00;;;16.10
15680;BMP180;15488;48.114;11.532;2023-02-23T01:47:15;94987.00;;;16.10
15680;BMP180;15488;48.114;11.532;2023-02-23T01:49:46;94989.00;;;16.20
15680;BMP180;15488;48.114;11.532;2023-02-23T01:52:16;94986.00;;;16.10
15680;BMP180;15488;48.114;11.532;2023-02-23T01:54:50;94984.00;;;16.10
15680;BMP180;15488;48.114;11.532;2023-02-23T01:57:21;94988.00;;;16.10
15680;BMP180;15488;48.114;11.532;2023-02-23T01:59:52;94985.00;;;16.30
15680;BMP180;15488;48.114;11.532;2023-02-23T02:02:22;94978.00;;;16.20
15680;BMP180;15488;48.114;11.532;2023-02-23T02:04:58;94974.00;;;16.20
15680;BMP180;15488;48.114;11.532;2023-02-23T02:07:28;94977.00;;;16.20
15680;BMP180;15488;48.114;11.532;2023-02-23T02:09:58;94974.00;;;16.20
15680;BMP180;15488;48.114;11.532;2023-02-23T02:13:04;94971.00;;;16.20
15680;BMP180;15488;48.114;11.532;2023-02-23T02:15:36;94966.00;;;16.10
15680;BMP180;15488;48.114;11.532;2023-02-23T02:18:13;94970.00;;;16.20
15680;BMP180;15488;48.114;11.532;2023-02-23T02:21:23;94965.00;;;16.10
15680;BMP180;15488;48.114;11.532;2023-02-23T02:24:35;94956.00;;;16.10
15680;BMP180;15488;48.114;11.532;2023-02-23T02:27:19;94954.00;;;16.10
15680;BMP180;15488;48.114;11.532;2023-02-23T02:35:58;94955.00;;;16.10
15680;BMP180;15488;48.114;11.532;2023-02-23T02:38:44;94955.00;;;16.10
15680;BMP180;15488;48.114;11.532;2023-02-23T02:41:23;94961.00;;;16.20
15680;BMP180;15488;48.114;11.532;2023-02-23T02:43:57;94961.00;;;16.30
15680;BMP180;15488;48.114;11.532;2023-02-23T02:46:28;94961.00;;;16.20
15680;BMP180;15488;48.114;11.532;2023-02-23T02:49:00;94962.00;;;16.20
15680;BMP180;15488;48.114;11.532;2023-02-23T02:51:34;94959.00;;;16.20
15680;BMP180;15488;48.114;11.532;2023-02-23T02:54:06;94961.00;;;16.20
15680;BMP180;15488;48.114;11.532;2023-02-23T02:56:39;94955.00;;;16.20
15680;BMP180;15488;48.114;11.532;2023-02-23T02:59:11;94955.00;;;16.20
15680;BMP180;15488;48.114;11.532;2023-02-23T03:01:57;94955.00;;;16.20
15680;BMP180;15488;48.114;11.532;2023-02-23T03:04:42;94955.00;;;16.20
15680;BMP180;15488;48.114;11.532;2023-02-23T03:07:35;94955.00;;;16.20
15680;BMP180;15488;48.114;11.532;2023-02-23T03:10:30;94958.00;;;16.20
15680;BMP180;15488;48.114;11.532;2023-02-23T03:13:26;94957.00;;;16.20
15680;BMP180;15488;48.114;11.532;2023-02-23T03:16:19;94955.00;;;16.20
15680;BMP180;15488;48.114;11.532;2023-02-23T03:19:12;94956.00;;;16.20
15680;BMP180;15488;48.114;11.532;2023-02-23T03:22:06;94957.00;;;16.20
15680;BMP180;15488;48.114;11.532;2023-02-23T03:24:56;94957.00;;;16.10
15680;BMP180;15488;48.114;11.532;2023-02-23T03:27:50;94955.00;;;16.10
15680;BMP180;15488;48.114;11.532;2023-02-23T03:30:44;94948.00;;;16.20
15680;BMP180;15488;48.114;11.532;2023-02-23T03:33:37;94951.00;;;16.10
15680;BMP180;15488;48.114;11.532;2023-02-23T03:36:24;94958.00;;;16.10
15680;BMP180;15488;48.114;11.532;2023-02-23T03:39:17;94961.00;;;16.20
15680;BMP180;15488;48.114;11.532;2023-02-23T03:42:08;94958.00;;;16.10
15680;BMP180;15488;48.114;11.532;2023-02-23T03:44:57;94958.00;;;16.20
15680;BMP180;15488;48.114;11.532;2023-02-23T03:47:44;94959.00;;;16.10
15680;BMP180;15488;48.114;11.532;2023-02-23T03:50:33;94960.00;;;15.90
15680;BMP180;15488;48.114;11.532;2023-02-23T03:53:23;94967.00;;;16.10
15680;BMP180;15488;48.114;11.532;2023-02-23T03:56:11;94968.00;;;16.20
15680;BMP180;15488;48.114;11.532;2023-02-23T03:58:59;94968.00;;;16.00
15680;BMP180;15488;48.114;11.532;2023-02-23T04:01:48;94967.00;;;16.10
15680;BMP180;15488;48.114;11.532;2023-02-23T04:04:35;94970.00;;;16.10
15680;BMP180;15488;48.114;11.532;2023-02-23T04:07:21;94969.00;;;16.00
15680;BMP180;15488;48.114;11.532;2023-02-23T04:10:09;94970.00;;;16.00
15680;BMP180;15488;48.114;11.532;2023-02-23T04:12:59;94972.00;;;16.00
15680;BMP180;15488;48.114;11.532;2023-02-23T04:15:49;94963.00;;;16.00
15680;BMP180;15488;48.114;11.532;2023-02-23T04:18:22;94971.00;;;16.00
15680;BMP180;15488;48.114;11.532;2023-02-23T04:20:50;94972.00;;;16.00
15680;BMP180;15488;48.114;11.532;2023-02-23T04:23:18;94972.00;;;16.00
15680;BMP180;15488;48.114;11.532;2023-02-23T04:25:47;94968.00;;;16.10
15680;BMP180;15488;48.114;11.532;2023-02-23T04:28:15;94972.00;;;16.00
15680;BMP180;15488;48.114;11.532;2023-02-23T04:30:42;94969.00;;;16.00
15680;BMP180;15488;48.114;11.532;2023-02-23T04:33:11;94965.00;;;16.00
15680;BMP180;15488;48.114;11.532;2023-02-23T04:35:40;94971.00;;;16.10
15680;BMP180;15488;48.114;11.532;2023-02-23T04:38:08;94965.00;;;16.00
15680;BMP180;15488;48.114;11.532;2023-02-23T04:40:35;94964.00;;;16.00
15680;BMP180;15488;48.114;11.532;2023-02-23T04:43:03;94966.00;;;16.00
15680;BMP180;15488;48.114;11.532;2023-02-23T04:45:30;94969.00;;;16.00
15680;BMP180;15488;48.114;11.532;2023-02-23T04:47:57;94967.00;;;16.00
15680;BMP180;15488;48.114;11.532;2023-02-23T04:50:25;94975.00;;;15.90
15680;BMP180;15488;48.114;11.532;2023-02-23T04:52:54;94975.00;;;15.90
15680;BMP180;15488;48.114;11.532;2023-02-23T04:55:23;94973.00;;;15.90
15680;BMP180;15488;48.114;11.532;2023-02-23T04:57:51;94979.00;;;16.00
15680;BMP180;15488;48.114;11.532;2023-02-23T05:00:19;94982.00;;;16.00
15680;BMP180;15488;48.114;11.532;2023-02-23T05:02:46;94987.00;;;16.00
15680;BMP180;15488;48.114;11.532;2023-02-23T05:05:14;94986.00;;;16.00
15680;BMP180;15488;48.114;11.532;2023-02-23T05:07:41;94981.00;;;16.00
15680;BMP180;15488;48.114;11.532;2023-02-23T05:10:11;94986.00;;;15.90
15680;BMP180;15488;48.114;11.532;2023-02-23T05:12:38;94987.00;;;15.90
15680;BMP180;15488;48.114;11.532;2023-02-23T05:15:07;94985.00;;;16.00
15680;BMP180;15488;48.114;11.532;2023-02-23T05:17:38;94979.00;;;15.90
15680;BMP180;15488;48.114;11.532;2023-02-23T05:20:08;94974.00;;;15.90
15680;BMP180;15488;48.114;11.532;2023-02-23T05:22:36;94977.00;;;15.90
15680;BMP180;15488;48.114;11.532;2023-02-23T05:25:04;94972.00;;;15.90
15680;BMP180;15488;48.114;11.532;2023-02-23T05:27:33;94978.00;;;15.80
15680;BMP180;15488;48.114;11.532;2023-02-23T05:30:03;94973.00;;;15.90
15680;BMP180;15488;48.114;11.532;2023-02-23T05:32:32;94978.00;;;16.00
15680;BMP180;15488;48.114;11.532;2023-02-23T05:35:03;94979.00;;;15.90
15680;BMP180;15488;48.114;11.532;2023-02-23T05:37:31;94987.00;;;15.90
15680;BMP180;15488;48.114;11.532;2023-02-23T05:39:58;94981.00;;;15.90
15680;BMP180;15488;48.114;11.532;2023-02-23T05:42:26;94977.00;;;15.80
15680;BMP180;15488;48.114;11.532;2023-02-23T05:44:55;94984.00;;;15.90
15680;BMP180;15488;48.114;11.532;2023-02-23T05:47:22;94983.00;;;16.00
15680;BMP180;15488;48.114;11.532;2023-02-23T05:49:49;94987.00;;;15.90
15680;BMP180;15488;48.114;11.532;2023-02-23T05:52:17;94985.00;;;15.90
15680;BMP180;15488;48.114;11.532;2023-02-23T05:54:45;94990.00;;;15.90
15680;BMP180;15488;48.114;11.532;2023-02-23T05:57:12;94986.00;;;15.90
15680;BMP180;15488;48.114;11.532;2023-02-23T05:59:41;94990.00;;;15.90
15680;BMP180;15488;48.114;11.532;2023-02-23T06:02:09;94983.00;;;15.90
15680;BMP180;15488;48.114;11.532;2023-02-23T06:04:37;94990.00;;;15.90
15680;BMP180;15488;48.114;11.532;2023-02-23T06:07:04;94991.00;;;16.00
15680;BMP180;15488;48.114;11.532;2023-02-23T06:09:32;94990.00;;;16.00
15680;BMP180;15488;48.114;11.532;2023-02-23T06:12:02;94987.00;;;16.00
15680;BMP180;15488;48.114;11.532;2023-02-23T06:14:30;94995.00;;;15.90
15680;BMP180;15488;48.114;11.532;2023-02-23T06:16:58;94991.00;;;16.00
15680;BMP180;15488;48.114;11.532;2023-02-23T06:19:27;94995.00;;;16.00
15680;BMP180;15488;48.114;11.532;2023-02-23T06:21:56;94998.00;;;16.00
15680;BMP180;15488;48.114;11.532;2023-02-23T06:24:24;94996.00;;;16.00
15680;BMP180;15488;48.114;11.532;2023-02-23T06:26:52;95000.00;;;16.10
15680;BMP180;15488;48.114;11.532;2023-02-23T06:29:19;94999.00;;;16.10
15680;BMP180;15488;48.114;11.532;2023-02-23T06:31:46;95010.00;;;16.00
15680;BMP180;15488;48.114;11.532;2023-02-23T06:34:14;95009.00;;;16.00
15680;BMP180;15488;48.114;11.532;2023-02-23T06:36:43;95014.00;;;16.10
15680;BMP180;15488;48.114;11.532;2023-02-23T06:39:11;95020.00;;;16.00
15680;BMP180;15488;48.114;11.532;2023-02-23T06:41:38;95024.00;;;16.10
15680;BMP180;15488;48.114;11.532;2023-02-23T06:44:06;95028.00;;;16.10
15680;BMP180;15488;48.114;11.532;2023-02-23T06:46:33;95024.00;;;16.00
15680;BMP180;15488;48.114;11.532;2023-02-23T06:49:01;95028.00;;;16.00
15680;BMP180;15488;48.114;11.532;2023-02-23T06:51:28;95036.00;;;16.10
15680;BMP180;15488;48.114;11.532;2023-02-23T06:53:57;95022.00;;;16.10
15680;BMP180;15488;48.114;11.532;2023-02-23T06:56:25;95027.00;;;16.10
15680;BMP180;15488;48.114;11.532;2023-02-23T06:58:52;95030.00;;;16.10
15680;BMP180;15488;48.114;11.532;2023-02-23T07:01:20;95038.00;;;16.10
15680;BMP180;15488;48.114;11.532;2023-02-23T07:03:47;95033.00;;;16.10
15680;BMP180;15488;48.114;11.532;2023-02-23T07:06:15;95032.00;;;16.20
15680;BMP180;15488;48.114;11.532;2023-02-23T07:08:42;95030.00;;;16.30
15680;BMP180;15488;48.114;11.532;2023-02-23T07:11:15;95032.00;;;16.20
15680;BMP180;15488;48.114;11.532;2023-02-23T07:13:44;95027.00;;;16.30
15680;BMP180;15488;48.114;11.532;2023-02-23T07:16:11;95030.00;;;16.30
15680;BMP180;15488;48.114;11.532;2023-02-23T07:18:40;95037.00;;;16.40
15680;BMP180;15488;48.114;11.532;2023-02-23T07:21:08;95034.00;;;16.40
15680;BMP180;15488;48.114;11.532;2023-02-23T07:23:35;95037.00;;;16.40
15680;BMP180;15488;48.114;11.532;2023-02-23T07:26:03;95035.00;;;16.40
15680;BMP180;15488;48.114;11.532;2023-02-23T07:28:32;95027.00;;;16.40
15680;BMP180;15488;48.114;11.532;2023-02-23T07:30:59;95039.00;;;16.40
15680;BMP180;15488;48.114;11.532;2023-02-23T07:33:27;95037.00;;;16.40
15680;BMP180;15488;48.114;11.532;2023-02-23T07:35:54;95035.00;;;16.50
15680;BMP180;15488;48.114;11.532;2023-02-23T07:38:22;95042.00;;;16.50
15680;BMP180;15488;48.114;11.532;2023-02-23T07:40:49;95037.00;;;16.60
15680;BMP180;15488;48.114;11.532;2023-02-23T07:43:17;95038.00;;;16.60
15680;BMP180;15488;48.114;11.532;2023-02-23T07:45:47;95035.00;;;16.60
15680;BMP180;15488;48.114;11.532;2023-02-23T07:48:16;95044.00;;;16.60
15680;BMP180;15488;48.114;11.532;2023-02-23T07:50:44;95040.00;;;16.60
15680;BMP180;15488;48.114;11.532;2023-02-23T07:53:11;95044.00;;;16.70
15680;BMP180;15488;48.114;11.532;2023-02-23T07:55:39;95046.00;;;16.80
15680;BMP180;15488;48.114;11.532;2023-02-23T07:58:07;95051.00;;;16.80
15680;BMP180;15488;48.114;11.532;2023-02-23T08:00:35;95048.00;;;16.90
15680;BMP180;15488;48.114;11.532;2023-02-23T08:03:06;95046.00;;;16.80
15680;BMP180;15488;48.114;11.532;2023-02-23T08:05:34;95050.00;;;16.80
15680;BMP180;15488;48.114;11.532;2023-02-23T08:08:03;95045.00;;;16.90
15680;BMP180;15488;48.114;11.532;2023-02-23T08:10:31;95042.00;;;16.90
15680;BMP180;15488;48.114;11.532;2023-02-23T08:12:58;95052.00;;;17.00
15680;BMP180;15488;48.114;11.532;2023-02-23T08:15:26;95048.00;;;17.00
15680;BMP180;15488;48.114;11.532;2023-02-23T08:17:53;95052.00;;;17.10
15680;BMP180;15488;48.114;11.532;2023-02-23T08:20:22;95055.00;;;17.00
15680;BMP180;15488;48.114;11.532;2023-02-23T08:22:53;95047.00;;;17.00
15680;BMP180;15488;48.114;11.532;2023-02-23T08:25:20;95052.00;;;17.10
15680;BMP180;15488;48.114;11.532;2023-02-23T08:27:48;95050.00;;;17.10
15680;BMP180;15488;48.114;11.532;2023-02-23T08:30:18;95050.00;;;17.10
15680;BMP180;15488;48.114;11.532;2023-02-23T08:32:46;95055.00;;;17.10
15680;BMP180;15488;48.114;11.532;2023-02-23T08:35:14;95056.00;;;17.20
15680;BMP180;15488;48.114;11.532;2023-02-23T08:37:43;95049.00;;;17.20
15680;BMP180;15488;48.114;11.532;2023-02-23T08:40:11;95051.00;;;17.10
15680;BMP180;15488;48.114;11.532;2023-02-23T08:42:40;95049.00;;;17.10
15680;BMP180;15488;48.114;11.532;2023-02-23T08:45:09;95052.00;;;17.20
15680;BMP180;15488;48.114;11.532;2023-02-23T08:47:36;95048.00;;;17.30
15680;BMP180;15488;48.114;11.532;2023-02-23T08:50:04;95039.00;;;17.30
15680;BMP180;15488;48.114;11.532;2023-02-23T08:52:32;95048.00;;;17.30
15680;BMP180;15488;48.114;11.532;2023-02-23T08:55:01;95038.00;;;17.30
15680;BMP180;15488;48.114;11.532;2023-02-23T08:57:31;95041.00;;;17.40
15680;BMP180;15488;48.114;11.532;2023-02-23T09:00:00;95048.00;;;17.40
15680;BMP180;15488;48.114;11.532;2023-02-23T09:02:28;95048.00;;;17.40
15680;BMP180;15488;48.114;11.532;2023-02-23T09:04:55;95045.00;;;17.40
15680;BMP180;15488;48.114;11.532;2023-02-23T09:07:23;95047.00;;;17.50
15680;BMP180;15488;48.114;11.532;2023-02-23T09:09:53;95050.00;;;17.50
15680;BMP180;15488;48.114;11.532;2023-02-23T09:12:22;95053.00;;;17.60
15680;BMP180;15488;48.114;11.532;2023-02-23T09:14:50;95052.00;;;17.60
15680;BMP180;15488;48.114;11.532;2023-02-23T09:17:18;95048.00;;;17.60
15680;BMP180;15488;48.114;11.532;2023-02-23T09:19:48;95047.00;;;17.60
15680;BMP180;15488;48.114;11.532;2023-02-23T09:22:15;95051.00;;;17.70
15680;BMP180;15488;48.114;11.532;2023-02-23T09:24:43;95052.00;;;17.70
15680;BMP180;15488;48.114;11.532;2023-02-23T09:27:11;95055.00;;;17.70
15680;BMP180;15488;48.114;11.532;2023-02-23T09:29:41;95055.00;;;17.70
15680;BMP180;15488;48.114;11.532;2023-02-23T09:32:09;95057.00;;;17.80
15680;BMP180;15488;48.114;11.532;2023-02-23T09:34:37;95056.00;;;17.80
15680;BMP180;15488;48.114;11.532;2023-02-23T09:37:05;95062.00;;;17.80
15680;BMP180;15488;48.114;11.532;2023-02-23T09:39:32;95058.00;;;17.80
15680;BMP180;15488;48.114;11.532;2023-02-23T09:42:14;95057.00;;;17.90
15680;BMP180;15488;48.114;11.532;2023-02-23T09:44:56;95058.00;;;17.90
15680;BMP180;15488;48.114;11.532;2023-02-23T09:47:39;95063.00;;;18.00
15680;BMP180;15488;48.114;11.532;2023-02-23T09:50:19;95059.00;;;18.00
15680;BMP180;15488;48.114;11.532;2023-02-23T09:52:52;95012.00;;;18.00
15680;BMP180;15488;48.114;11.532;2023-02-23T09:55:21;95064.00;;;18.10
15680;BMP180;15488;48.114;11.532;2023-02-23T09:57:50;95066.00;;;18.10
15680;BMP180;15488;48.114;11.532;2023-02-23T10:00:22;95069.00;;;18.10
15680;BMP180;15488;48.114;11.532;2023-02-23T10:03:21;95075.00;;;18.20
15680;BMP180;15488;48.114;11.532;2023-02-23T10:05:54;95070.00;;;18.20
15680;BMP180;15488;48.114;11.532;2023-02-23T10:08:49;95071.00;;;18.30
15680;BMP180;15488;48.114;11.532;2023-02-23T10:11:24;95068.00;;;18.20
15680;BMP180;15488;48.114;11.532;2023-02-23T10:14:06;95066.00;;;18.30
15680;BMP180;15488;48.114;11.532;2023-02-23T10:16:48;95064.00;;;18.30
15680;BMP180;15488;48.114;11.532;2023-02-23T10:19:25;95065.00;;;18.30
15680;BMP180;15488;48.114;11.532;2023-02-23T10:22:02;95064.00;;;18.40
15680;BMP180;15488;48.114;11.532;2023-02-23T10:24:34;95059.00;;;18.40
15680;BMP180;15488;48.114;11.532;2023-02-23T10:27:07;95064.00;;;18.40
15680;BMP180;15488;48.114;11.532;2023-02-23T10:29:40;95064.00;;;18.40
15680;BMP180;15488;48.114;11.532;2023-02-23T10:32:17;95059.00;;;18.50
15680;BMP180;15488;48.114;11.532;2023-02-23T10:34:51;95064.00;;;18.60
15680;BMP180;15488;48.114;11.532;2023-02-23T10:37:19;95053.00;;;18.50
15680;BMP180;15488;48.114;11.532;2023-02-23T10:39:47;95051.00;;;18.60
15680;BMP180;15488;48.114;11.532;2023-02-23T10:42:20;95064.00;;;18.60
15680;BMP180;15488;48.114;11.532;2023-02-23T10:44:49;95053.00;;;18.60
15680;BMP180;15488;48.114;11.532;2023-02-23T10:47:20;95062.00;;;18.70
15680;BMP180;15488;48.114;11.532;2023-02-23T10:49:50;95054.00;;;18.70
15680;BMP180;15488;48.114;11.532;2023-02-23T10:52:21;95059.00;;;18.70
15680;BMP180;15488;48.114;11.532;2023-02-23T10:54:50;95059.00;;;18.80
15680;BMP180;15488;48.114;11.532;2023-02-23T10:57:26;95050.00;;;18.90
15680;BMP180;15488;48.114;11.532;2023-02-23T11:00:09;95049.00;;;18.90
15680;BMP180;15488;48.114;11.532;2023-02-23T11:02:54;95059.00;;;19.00
15680;BMP180;15488;48.114;11.532;2023-02-23T11:05:36;95052.00;;;19.00
15680;BMP180;15488;48.114;11.532;2023-02-23T11:08:25;95055.00;;;19.10
15680;BMP180;15488;48.114;11.532;2023-02-23T11:11:04;95046.00;;;19.20
15680;BMP180;15488;48.114;11.532;2023-02-23T11:13:38;95052.00;;;19.20
15680;BMP180;15488;48.114;11.532;2023-02-23T11:16:09;95042.00;;;19.30
15680;BMP180;15488;48.114;11.532;2023-02-23T11:18:40;95041.00;;;19.40
15680;BMP180;15488;48.114;11.532;2023-02-23T11:21:10;95043.00;;;19.40
15680;BMP180;15488;48.114;11.532;2023-02-23T11:23:39;95037.00;;;19.50
15680;BMP180;15488;48.114;11.532;2023-02-23T11:26:29;95037.00;;;19.60
15680;BMP180;15488;48.114;11.532;2023-02-23T11:29:00;95041.00;;;19.60
15680;BMP180;15488;48.114;11.532;2023-02-23T11:31:31;95037.00;;;19.60
15680;BMP180;15488;48.114;11.532;2023-02-23T11:34:02;95034.00;;;19.70
15680;BMP180;15488;48.114;11.532;2023-02-23T11:36:32;95030.00;;;19.70
15680;BMP180;15488;48.114;11.532;2023-02-23T11:39:19;95022.00;;;19.80
15680;BMP180;15488;48.114;11.532;2023-02-23T11:42:14;95026.00;;;19.80
15680;BMP180;15488;48.114;11.532;2023-02-23T11:44:42;95025.00;;;19.90
15680;BMP180;15488;48.114;11.532;2023-02-23T11:47:17;95016.00;;;19.90
15680;BMP180;15488;48.114;11.532;2023-02-23T11:49:54;95018.00;;;19.90
15680;BMP180;15488;48.114;11.532;2023-02-23T11:52:22;95011.00;;;20.00
15680;BMP180;15488;48.114;11.532;2023-02-23T11:54:54;95022.00;;;20.00
15680;BMP180;15488;48.114;11.532;2023-02-23T11:57:24;95011.00;;;20.00
15680;BMP180;15488;48.114;11.532;2023-02-23T11:59:52;95010.00;;;20.10
15680;BMP180;15488;48.114;11.532;2023-02-23T12:02:22;95001.00;;;20.10
15680;BMP180;15488;48.114;11.532;2023-02-23T12:04:59;95000.00;;;20.10
15680;BMP180;15488;48.114;11.532;2023-02-23T12:07:34;95003.00;;;20.20
15680;BMP180;15488;48.114;11.532;2023-02-23T12:10:14;95001.00;;;20.20
15680;BMP180;15488;48.114;11.532;2023-02-23T12:12:49;94996.00;;;20.30
15680;BMP180;15488;48.114;11.532;2023-02-23T12:15:34;94996.00;;;20.30
15680;BMP180;15488;48.114;11.532;2023-02-23T12:18:10;94989.00;;;20.30
15680;BMP180;15488;48.114;11.532;2023-02-23T12:20:45;94997.00;;;20.30
15680;BMP180;15488;48.114;11.532;2023-02-23T12:23:19;94988.00;;;20.30
15680;BMP180;15488;48.114;11.532;2023-02-23T12:25:51;94986.00;;;20.30
15680;BMP180;15488;48.114;11.532;2023-02-23T12:28:24;94979.00;;;20.30
15680;BMP180;15488;48.114;11.532;2023-02-23T12:30:59;94983.00;;;20.30
15680;BMP180;15488;48.114;11.532;2023-02-23T12:33:30;94984.00;;;20.30
15680;BMP180;15488;48.114;11.532;2023-02-23T12:36:03;94982.00;;;20.30
15680;BMP180;15488;48.114;11.532;2023-02-23T12:38:38;94979.00;;;20.30
15680;BMP180;15488;48.114;11.532;2023-02-23T12:41:11;94980.00;;;20.30
15680;BMP180;15488;48.114;11.532;2023-02-23T12:43:45;94979.00;;;20.30
15680;BMP180;15488;48.114;11.532;2023-02-23T12:46:17;94978.00;;;20.30
15680;BMP180;15488;48.114;11.532;2023-02-23T12:48:54;94977.00;;;20.30
15680;BMP180;15488;48.114;11.532;2023-02-23T12:51:29;94972.00;;;20.30
15680;BMP180;15488;48.114;11.532;2023-02-23T12:53:58;94978.00;;;20.40
15680;BMP180;15488;48.114;11.532;2023-02-23T12:56:38;94976.00;;;20.30
15680;BMP180;15488;48.114;11.532;2023-02-23T13:02:16;94975.00;;;20.30
15680;BMP180;15488;48.114;11.532;2023-02-23T13:05:01;94973.00;;;20.30
15680;BMP180;15488;48.114;11.532;2023-02-23T13:07:41;94978.00;;;20.20
15680;BMP180;15488;48.114;11.532;2023-02-23T13:10:19;94968.00;;;20.20
15680;BMP180;15488;48.114;11.532;2023-02-23T13:12:55;94970.00;;;19.80
15680;BMP180;15488;48.114;11.532;2023-02-23T13:15:38;94970.00;;;20.10
15680;BMP180;15488;48.114;11.532;2023-02-23T13:18:16;94967.00;;;20.10
15680;BMP180;15488;48.114;11.532;2023-02-23T13:20:49;94966.00;;;20.10
15680;BMP180;15488;48.114;11.532;2023-02-23T13:23:25;94965.00;;;20.10
15680;BMP180;15488;48.114;11.532;2023-02-23T13:25:59;94971.00;;;20.10
15680;BMP180;15488;48.114;11.532;2023-02-23T13:28:37;94970.00;;;20.10
15680;BMP180;15488;48.114;11.532;2023-02-23T13:31:16;94968.00;;;20.10
15680;BMP180;15488;48.114;11.532;2023-02-23T13:33:46;94973.00;;;20.10
15680;BMP180;15488;48.114;11.532;2023-02-23T13:36:14;94976.00;;;20.10
15680;BMP180;15488;48.114;11.532;2023-02-23T13:38:50;94972.00;;;20.10
15680;BMP180;15488;48.114;11.532;2023-02-23T13:41:30;94967.00;;;20.20
15680;BMP180;15488;48.114;11.532;2023-02-23T13:44:06;94961.00;;;20.20
15680;BMP180;15488;48.114;11.532;2023-02-23T13:46:41;94963.00;;;20.20
15680;BMP180;15488;48.114;11.532;2023-02-23T13:49:23;94962.00;;;20.30
15680;BMP180;15488;48.114;11.532;2023-02-23T13:51:55;94954.00;;;20.30
15680;BMP180;15488;48.114;11.532;2023-02-23T13:54:30;94958.00;;;20.40
15680;BMP180;15488;48.114;11.532;2023-02-23T13:57:00;94954.00;;;20.40
15680;BMP180;15488;48.114;11.532;2023-02-23T13:59:30;94953.00;;;20.50
15680;BMP180;15488;48.114;11.532;2023-02-23T14:02:20;94949.00;;;20.50
15680;BMP180;15488;48.114;11.532;2023-02-23T14:04:50;94956.00;;;20.60
15680;BMP180;15488;48.114;11.532;2023-02-23T14:07:22;94951.00;;;20.60
15680;BMP180;15488;48.114;11.532;2023-02-23T14:09:55;94961.00;;;20.60
15680;BMP180;15488;48.114;11.532;2023-02-23T14:12:25;94953.00;;;20.60
15680;BMP180;15488;48.114;11.532;2023-02-23T14:15:27;94945.00;;;20.50
15680;BMP180;15488;48.114;11.532;2023-02-23T14:17:56;94954.00;;;20.50
15680;BMP180;15488;48.114;11.532;2023-02-23T14:20:41;94956.00;;;20.50
15680;BMP180;15488;48.114;11.532;2023-02-23T14:23:29;94954.00;;;20.50
15680;BMP180;15488;48.114;11.532;2023-02-23T14:26:15;94948.00;;;20.60
15680;BMP180;15488;48.114;11.532;2023-02-23T14:28:45;94949.00;;;20.80
15680;BMP180;15488;48.114;11.532;2023-02-23T14:31:21;94948.00;;;20.90
15680;BMP180;15488;48.114;11.532;2023-02-23T14:34:02;94942.00;;;21.00
15680;BMP180;15488;48.114;11.532;2023-02-23T14:36:37;94948.00;;;21.10
15680;BMP180;15488;48.114;11.532;2023-02-23T14:39:08;94946.00;;;21.20
15680;BMP180;15488;48.114;11.532;2023-02-23T14:41:42;94947.00;;;21.20
15680;BMP180;15488;48.114;11.532;2023-02-23T14:44:13;94936.00;;;21.10